This is the latest recevied weather packets stored in our database for station/object KE8URB. If no packets are shown the sender has not sent any weather packets the latest 10 day(s).
| Time | Temp. | Humidity | Pressure | Rain* | Wind** | Luminosity | Snow |
|---|---|---|---|---|---|---|---|
| 1787673440 | 22.78° C | 67% | 1021.2 hPa | 0 mm | - | 61 W/m² | - |
| 1787673135 | 22.78° C | 70% | 1021.1 hPa | 0 mm | - | 45 W/m² | - |
| 1787672834 | 22.22° C | 71% | 1021 hPa | 0 mm | - | 47 W/m² | - |
| 1787672531 | 22.22° C | 71% | 1021.4 hPa | 0 mm | - | 64 W/m² | - |
| 1787672229 | 21.67° C | 74% | 1021.1 hPa | 0 mm | - | 62 W/m² | - |
| 1787671929 | 22.22° C | 73% | 1021.2 hPa | 0 mm | - | 47 W/m² | - |
| 1787671626 | 22.22° C | 74% | 1021.2 hPa | 0 mm | - | 48 W/m² | - |
| 1787671325 | 21.67° C | 72% | 1021.2 hPa | 0 mm | - | 94 W/m² | - |
| 1787671020 | 21.67° C | 73% | 1021 hPa | 0 mm | - | 57 W/m² | - |
| 1787670716 | 22.22° C | 75% | 1021.1 hPa | 0 mm | - | 34 W/m² | - |
| 1787670416 | 21.67° C | 76% | 1021 hPa | 0 mm | - | 55 W/m² | - |
| 1787670116 | 21.11° C | 76% | 1020.8 hPa | 0 mm | - | 75 W/m² | - |
| 1787669815 | 21.11° C | 79% | 1020.8 hPa | 0 mm | - | 36 W/m² | - |
| 1787669510 | 21.67° C | 81% | 1021.2 hPa | 0 mm | - | 35 W/m² | - |
| 1787669206 | 21.11° C | 81% | 1020.8 hPa | 0 mm | - | 33 W/m² | - |
| 1787668902 | 21.11° C | 82% | 1021.1 hPa | 0 mm | - | 65 W/m² | - |
| 1787668598 | 20.56° C | 84% | 1021 hPa | 0 mm | - | 34 W/m² | - |
| 1787668293 | 20.56° C | 84% | 1021.3 hPa | 0 mm | - | 31 W/m² | - |
| 1787667988 | 20° C | 86% | 1021.1 hPa | 0 mm | - | 33 W/m² | - |
| 1787667683 | 20° C | 88% | 1021.2 hPa | 0 mm | - | 32 W/m² | - |
| 1787667380 | 19.44° C | 89% | 1021 hPa | 0 mm | - | 32 W/m² | - |
| 1787667080 | 19.44° C | 90% | 1020.8 hPa | 0 mm | - | 31 W/m² | - |
| 1787666775 | 18.89° C | 89% | 1020.8 hPa | 0 mm | - | 75 W/m² | - |
| 1787666475 | 18.89° C | 89% | 1020.8 hPa | 0 mm | - | 31 W/m² | - |
| 1787666171 | 18.89° C | 89% | 1020.8 hPa | 0 mm | - | 32 W/m² | - |
* Rain latest hour (hover to see other rain measurements)
** Current wind speed in m/s (hover to see current wind gust speed)